Breda, Netherlands
Current Conditions -  °F | °C
As of 2:43 PM on Friday 24 Oct 2014 (Local Time) from EHGR Reporting Station
Overcast Overcast  
Wind Chill: 55°   Ceiling: 6600
Heat Index: 55°   Visibility: 6mi
Dew Point: 52°   Wind: 13mph
Humidity: 88%   Direction: 190°S
Pressure: 30.03"   Gusts: NA
Location:  51.56°N, 4.76°E
Report Text: EHGR 241243Z AUTO 19011KT 9999 SCT013 SCT058 OVC066 13/11 Q1017 GRN 19010KT 9999 SCT020 BKN035 TEMPO FEW010 BKN015
Loading
Personal Weather Stations






























Interactive Weather Map
Tropical Storm Tracking
New forecast layout! Learn more

10-Day Weather Forecast

Advertisements
Track Severe Weather on mobile